sensor_id;sensor_type;location;lat;lon;timestamp;pressure;altitude;pressure_sealevel;temperature;humidity
57050;BME280;42935;50.966;16.992;2023-01-26T00:00:48;102310.02;;;0.47;100.00
57050;BME280;42935;50.966;16.992;2023-01-26T00:04:00;102308.65;;;0.37;100.00
57050;BME280;42935;50.966;16.992;2023-01-26T00:07:07;102297.32;;;0.48;100.00
57050;BME280;42935;50.966;16.992;2023-01-26T00:10:22;102299.92;;;0.47;100.00
57050;BME280;42935;50.966;16.992;2023-01-26T00:13:37;102294.13;;;0.46;100.00
57050;BME280;42935;50.966;16.992;2023-01-26T00:16:48;102299.22;;;0.46;100.00
57050;BME280;42935;50.966;16.992;2023-01-26T00:19:59;102280.44;;;0.44;100.00
57050;BME280;42935;50.966;16.992;2023-01-26T00:23:12;102295.73;;;0.49;100.00
57050;BME280;42935;50.966;16.992;2023-01-26T00:26:24;102297.08;;;0.61;100.00
57050;BME280;42935;50.966;16.992;2023-01-26T00:29:40;102296.10;;;0.61;100.00
57050;BME280;42935;50.966;16.992;2023-01-26T00:32:51;102290.13;;;0.46;100.00
57050;BME280;42935;50.966;16.992;2023-01-26T00:35:58;102287.36;;;0.55;100.00
57050;BME280;42935;50.966;16.992;2023-01-26T00:39:04;102281.55;;;0.44;100.00
57050;BME280;42935;50.966;16.992;2023-01-26T00:42:12;102274.48;;;0.37;100.00
57050;BME280;42935;50.966;16.992;2023-01-26T00:45:21;102280.09;;;0.31;100.00
57050;BME280;42935;50.966;16.992;2023-01-26T00:48:25;102279.89;;;0.36;100.00
57050;BME280;42935;50.966;16.992;2023-01-26T00:51:39;102277.27;;;0.41;100.00
57050;BME280;42935;50.966;16.992;2023-01-26T00:54:53;102289.35;;;0.09;100.00
57050;BME280;42935;50.966;16.992;2023-01-26T00:58:33;102288.43;;;0.10;100.00
57050;BME280;42935;50.966;16.992;2023-01-26T01:01:45;102280.22;;;0.04;100.00
57050;BME280;42935;50.966;16.992;2023-01-26T01:04:57;102281.78;;;0.23;100.00
57050;BME280;42935;50.966;16.992;2023-01-26T01:08:04;102283.27;;;0.22;100.00
57050;BME280;42935;50.966;16.992;2023-01-26T01:11:15;102277.81;;;-0.12;100.00
57050;BME280;42935;50.966;16.992;2023-01-26T01:14:24;102287.13;;;0.03;100.00
57050;BME280;42935;50.966;16.992;2023-01-26T01:17:31;102284.99;;;0.13;100.00
57050;BME280;42935;50.966;16.992;2023-01-26T01:20:41;102272.80;;;0.17;100.00
57050;BME280;42935;50.966;16.992;2023-01-26T01:23:48;102273.66;;;0.23;100.00
57050;BME280;42935;50.966;16.992;2023-01-26T01:26:53;102280.97;;;0.22;100.00
57050;BME280;42935;50.966;16.992;2023-01-26T01:30:03;102266.70;;;0.35;100.00
57050;BME280;42935;50.966;16.992;2023-01-26T01:33:16;102274.38;;;0.51;100.00
57050;BME280;42935;50.966;16.992;2023-01-26T01:36:31;102265.21;;;0.28;100.00
57050;BME280;42935;50.966;16.992;2023-01-26T01:39:47;102273.30;;;-0.05;100.00
57050;BME280;42935;50.966;16.992;2023-01-26T01:42:54;102272.50;;;0.11;100.00
57050;BME280;42935;50.966;16.992;2023-01-26T01:52:53;102260.99;;;-0.13;100.00
57050;BME280;42935;50.966;16.992;2023-01-26T01:56:13;102252.89;;;-0.05;100.00
57050;BME280;42935;50.966;16.992;2023-01-26T01:59:33;102240.41;;;0.05;100.00
57050;BME280;42935;50.966;16.992;2023-01-26T02:02:46;102246.49;;;0.22;100.00
57050;BME280;42935;50.966;16.992;2023-01-26T02:06:15;102239.78;;;0.19;100.00
57050;BME280;42935;50.966;16.992;2023-01-26T02:09:30;102235.03;;;0.33;100.00
57050;BME280;42935;50.966;16.992;2023-01-26T02:12:56;102230.69;;;0.27;100.00
57050;BME280;42935;50.966;16.992;2023-01-26T02:16:15;102229.37;;;0.30;100.00
57050;BME280;42935;50.966;16.992;2023-01-26T02:26:19;102199.55;;;0.46;100.00
57050;BME280;42935;50.966;16.992;2023-01-26T02:29:31;102197.10;;;0.40;100.00
57050;BME280;42935;50.966;16.992;2023-01-26T02:32:42;102201.45;;;0.18;100.00
57050;BME280;42935;50.966;16.992;2023-01-26T02:35:42;102171.36;;;0.24;100.00
57050;BME280;42935;50.966;16.992;2023-01-26T02:42:20;102193.26;;;0.38;100.00
57050;BME280;42935;50.966;16.992;2023-01-26T02:45:48;102179.02;;;0.16;100.00
57050;BME280;42935;50.966;16.992;2023-01-26T02:49:03;102181.88;;;0.02;100.00
57050;BME280;42935;50.966;16.992;2023-01-26T02:52:51;102178.55;;;0.09;100.00
57050;BME280;42935;50.966;16.992;2023-01-26T02:56:32;102173.16;;;-0.03;100.00
57050;BME280;42935;50.966;16.992;2023-01-26T02:59:39;102171.32;;;0.06;100.00
57050;BME280;42935;50.966;16.992;2023-01-26T03:02:52;102177.25;;;0.02;100.00
57050;BME280;42935;50.966;16.992;2023-01-26T03:06:03;102167.33;;;0.20;100.00
57050;BME280;42935;50.966;16.992;2023-01-26T03:09:15;102164.42;;;0.19;100.00
57050;BME280;42935;50.966;16.992;2023-01-26T03:12:31;102165.83;;;0.26;100.00
57050;BME280;42935;50.966;16.992;2023-01-26T03:15:41;102161.25;;;0.14;100.00
57050;BME280;42935;50.966;16.992;2023-01-26T03:18:51;102152.72;;;0.19;100.00
57050;BME280;42935;50.966;16.992;2023-01-26T03:22:10;102161.20;;;0.01;100.00
57050;BME280;42935;50.966;16.992;2023-01-26T03:25:28;102156.59;;;0.17;100.00
57050;BME280;42935;50.966;16.992;2023-01-26T03:28:45;102154.17;;;0.20;100.00
57050;BME280;42935;50.966;16.992;2023-01-26T03:32:00;102150.40;;;0.34;100.00
57050;BME280;42935;50.966;16.992;2023-01-26T03:35:15;102144.91;;;0.26;100.00
57050;BME280;42935;50.966;16.992;2023-01-26T03:38:31;102132.08;;;0.15;100.00
57050;BME280;42935;50.966;16.992;2023-01-26T03:41:42;102134.95;;;0.21;100.00
57050;BME280;42935;50.966;16.992;2023-01-26T03:44:59;102132.36;;;0.20;100.00
57050;BME280;42935;50.966;16.992;2023-01-26T03:48:20;102124.76;;;0.29;100.00
57050;BME280;42935;50.966;16.992;2023-01-26T03:51:37;102121.82;;;0.19;100.00
57050;BME280;42935;50.966;16.992;2023-01-26T03:55:03;102127.91;;;-0.24;100.00
57050;BME280;42935;50.966;16.992;2023-01-26T03:58:29;102100.38;;;-0.10;100.00
57050;BME280;42935;50.966;16.992;2023-01-26T04:01:44;102119.26;;;0.15;100.00
57050;BME280;42935;50.966;16.992;2023-01-26T04:05:05;102126.95;;;-0.20;100.00
57050;BME280;42935;50.966;16.992;2023-01-26T04:08:29;102120.97;;;-0.00;100.00
57050;BME280;42935;50.966;16.992;2023-01-26T04:11:44;102104.26;;;-0.09;100.00
57050;BME280;42935;50.966;16.992;2023-01-26T04:14:51;102120.49;;;-0.13;100.00
57050;BME280;42935;50.966;16.992;2023-01-26T04:18:16;102115.48;;;-0.01;100.00
57050;BME280;42935;50.966;16.992;2023-01-26T04:21:37;102107.00;;;-0.04;100.00
57050;BME280;42935;50.966;16.992;2023-01-26T04:24:52;102102.95;;;-0.15;100.00
57050;BME280;42935;50.966;16.992;2023-01-26T04:28:05;102115.63;;;-0.34;100.00
57050;BME280;42935;50.966;16.992;2023-01-26T04:31:12;102110.24;;;-0.48;100.00
57050;BME280;42935;50.966;16.992;2023-01-26T04:34:24;102110.46;;;-0.55;100.00
57050;BME280;42935;50.966;16.992;2023-01-26T04:37:39;102107.80;;;-0.54;100.00
57050;BME280;42935;50.966;16.992;2023-01-26T04:40:54;102103.31;;;-0.53;100.00
57050;BME280;42935;50.966;16.992;2023-01-26T04:44:05;102104.59;;;-0.99;100.00
57050;BME280;42935;50.966;16.992;2023-01-26T04:47:21;102089.90;;;-1.00;100.00
57050;BME280;42935;50.966;16.992;2023-01-26T04:50:32;102096.25;;;-0.91;100.00
57050;BME280;42935;50.966;16.992;2023-01-26T04:53:37;102093.08;;;-0.76;100.00
57050;BME280;42935;50.966;16.992;2023-01-26T04:56:51;102080.52;;;-0.82;100.00
57050;BME280;42935;50.966;16.992;2023-01-26T05:00:36;102091.66;;;-0.89;100.00
57050;BME280;42935;50.966;16.992;2023-01-26T05:03:46;102086.36;;;-0.87;100.00
57050;BME280;42935;50.966;16.992;2023-01-26T05:06:53;102087.59;;;-0.60;100.00
57050;BME280;42935;50.966;16.992;2023-01-26T05:10:05;102078.49;;;-0.49;100.00
57050;BME280;42935;50.966;16.992;2023-01-26T05:13:11;102084.11;;;-0.39;100.00
57050;BME280;42935;50.966;16.992;2023-01-26T05:16:21;102076.79;;;-0.65;100.00
57050;BME280;42935;50.966;16.992;2023-01-26T05:19:33;102083.55;;;-0.69;100.00
57050;BME280;42935;50.966;16.992;2023-01-26T05:22:48;102067.73;;;-0.58;100.00
57050;BME280;42935;50.966;16.992;2023-01-26T05:25:58;102080.91;;;-0.42;100.00
57050;BME280;42935;50.966;16.992;2023-01-26T05:29:09;102078.95;;;-0.21;100.00
57050;BME280;42935;50.966;16.992;2023-01-26T05:32:51;102040.31;;;-0.34;100.00
57050;BME280;42935;50.966;16.992;2023-01-26T05:36:06;102075.69;;;-0.00;100.00
57050;BME280;42935;50.966;16.992;2023-01-26T05:39:21;102061.70;;;0.03;100.00
57050;BME280;42935;50.966;16.992;2023-01-26T05:42:31;102077.57;;;0.03;100.00
57050;BME280;42935;50.966;16.992;2023-01-26T05:45:42;102076.55;;;0.09;100.00
57050;BME280;42935;50.966;16.992;2023-01-26T05:48:52;102064.82;;;-0.02;100.00
57050;BME280;42935;50.966;16.992;2023-01-26T05:52:11;102062.91;;;-0.07;100.00
57050;BME280;42935;50.966;16.992;2023-01-26T05:55:26;102071.89;;;0.05;100.00
57050;BME280;42935;50.966;16.992;2023-01-26T05:58:33;102072.52;;;-0.02;100.00
57050;BME280;42935;50.966;16.992;2023-01-26T06:01:40;102067.55;;;-0.25;100.00
57050;BME280;42935;50.966;16.992;2023-01-26T06:04:47;102059.01;;;-0.15;100.00
57050;BME280;42935;50.966;16.992;2023-01-26T06:07:58;102062.66;;;-0.02;100.00
57050;BME280;42935;50.966;16.992;2023-01-26T06:11:09;102061.75;;;0.02;100.00
57050;BME280;42935;50.966;16.992;2023-01-26T06:14:22;102051.95;;;-0.07;100.00
57050;BME280;42935;50.966;16.992;2023-01-26T06:17:29;102044.99;;;0.02;100.00
57050;BME280;42935;50.966;16.992;2023-01-26T06:20:43;102052.12;;;-0.02;100.00
57050;BME280;42935;50.966;16.992;2023-01-26T06:23:50;102050.11;;;0.09;100.00
57050;BME280;42935;50.966;16.992;2023-01-26T06:26:57;102055.41;;;0.10;100.00
57050;BME280;42935;50.966;16.992;2023-01-26T06:30:00;102054.44;;;-0.15;100.00
57050;BME280;42935;50.966;16.992;2023-01-26T06:33:20;102056.09;;;-0.08;100.00
57050;BME280;42935;50.966;16.992;2023-01-26T06:36:31;102057.29;;;0.02;100.00
57050;BME280;42935;50.966;16.992;2023-01-26T06:39:38;102052.27;;;0.01;100.00
57050;BME280;42935;50.966;16.992;2023-01-26T06:42:50;102046.88;;;-0.01;100.00
57050;BME280;42935;50.966;16.992;2023-01-26T06:46:03;102046.52;;;-0.12;100.00
57050;BME280;42935;50.966;16.992;2023-01-26T06:49:40;102045.95;;;-0.33;100.00
57050;BME280;42935;50.966;16.992;2023-01-26T06:52:55;102066.36;;;-0.24;100.00
57050;BME280;42935;50.966;16.992;2023-01-26T06:56:03;102065.91;;;-0.16;100.00
57050;BME280;42935;50.966;16.992;2023-01-26T06:59:14;102056.70;;;-0.17;100.00
57050;BME280;42935;50.966;16.992;2023-01-26T07:02:21;102055.73;;;-0.29;100.00
57050;BME280;42935;50.966;16.992;2023-01-26T07:05:32;102060.89;;;-0.24;100.00
57050;BME280;42935;50.966;16.992;2023-01-26T07:08:36;102062.39;;;-0.26;100.00
57050;BME280;42935;50.966;16.992;2023-01-26T07:11:49;102061.63;;;-0.18;100.00
57050;BME280;42935;50.966;16.992;2023-01-26T07:15:00;102067.10;;;-0.05;100.00
57050;BME280;42935;50.966;16.992;2023-01-26T07:18:11;102059.89;;;-0.18;100.00
57050;BME280;42935;50.966;16.992;2023-01-26T07:21:28;102059.27;;;-0.25;100.00
57050;BME280;42935;50.966;16.992;2023-01-26T07:24:31;102070.15;;;-0.19;100.00
57050;BME280;42935;50.966;16.992;2023-01-26T07:27:46;102068.95;;;-0.24;100.00
57050;BME280;42935;50.966;16.992;2023-01-26T07:31:02;102045.96;;;-0.26;100.00
57050;BME280;42935;50.966;16.992;2023-01-26T07:34:10;102057.32;;;-0.35;100.00
57050;BME280;42935;50.966;16.992;2023-01-26T07:37:28;102063.01;;;-0.43;100.00
57050;BME280;42935;50.966;16.992;2023-01-26T07:40:35;102061.17;;;-0.47;100.00
57050;BME280;42935;50.966;16.992;2023-01-26T07:43:43;102056.41;;;-0.43;100.00
57050;BME280;42935;50.966;16.992;2023-01-26T07:46:49;102062.38;;;-0.45;100.00
57050;BME280;42935;50.966;16.992;2023-01-26T07:50:02;102056.81;;;-0.48;100.00
57050;BME280;42935;50.966;16.992;2023-01-26T07:53:17;102043.09;;;-0.35;100.00
57050;BME280;42935;50.966;16.992;2023-01-26T07:56:33;102053.86;;;-0.43;100.00
57050;BME280;42935;50.966;16.992;2023-01-26T07:59:48;102059.86;;;-0.58;100.00
57050;BME280;42935;50.966;16.992;2023-01-26T08:03:04;102064.01;;;-0.48;100.00
57050;BME280;42935;50.966;16.992;2023-01-26T08:06:14;102053.18;;;-0.50;100.00
57050;BME280;42935;50.966;16.992;2023-01-26T08:09:22;102059.09;;;-0.26;100.00
57050;BME280;42935;50.966;16.992;2023-01-26T08:12:37;102059.84;;;-0.43;100.00
57050;BME280;42935;50.966;16.992;2023-01-26T08:15:51;102057.98;;;-0.27;100.00
57050;BME280;42935;50.966;16.992;2023-01-26T08:19:32;102057.70;;;-0.27;100.00
57050;BME280;42935;50.966;16.992;2023-01-26T08:22:39;102052.01;;;-0.28;100.00
57050;BME280;42935;50.966;16.992;2023-01-26T08:25:50;102053.29;;;-0.08;100.00
57050;BME280;42935;50.966;16.992;2023-01-26T08:29:09;102046.70;;;-0.25;100.00
57050;BME280;42935;50.966;16.992;2023-01-26T08:32:20;102049.53;;;-0.13;100.00
57050;BME280;42935;50.966;16.992;2023-01-26T08:35:27;102045.21;;;0.21;100.00
57050;BME280;42935;50.966;16.992;2023-01-26T08:38:43;102045.58;;;0.21;100.00
57050;BME280;42935;50.966;16.992;2023-01-26T08:41:50;102038.25;;;0.04;100.00
57050;BME280;42935;50.966;16.992;2023-01-26T08:45:01;102048.10;;;0.07;100.00
57050;BME280;42935;50.966;16.992;2023-01-26T08:48:08;102055.98;;;-0.13;100.00
57050;BME280;42935;50.966;16.992;2023-01-26T08:51:19;102048.59;;;-0.10;100.00
57050;BME280;42935;50.966;16.992;2023-01-26T08:54:30;102049.04;;;-0.30;100.00
57050;BME280;42935;50.966;16.992;2023-01-26T08:57:41;102053.02;;;-0.22;100.00
57050;BME280;42935;50.966;16.992;2023-01-26T09:01:13;102058.67;;;-0.15;100.00
57050;BME280;42935;50.966;16.992;2023-01-26T09:04:22;102053.55;;;-0.29;100.00
57050;BME280;42935;50.966;16.992;2023-01-26T09:07:32;102048.31;;;-0.44;100.00
57050;BME280;42935;50.966;16.992;2023-01-26T09:10:40;102065.77;;;-0.14;100.00
57050;BME280;42935;50.966;16.992;2023-01-26T09:13:53;102067.86;;;-0.08;100.00
57050;BME280;42935;50.966;16.992;2023-01-26T09:17:09;102071.19;;;0.08;100.00
57050;BME280;42935;50.966;16.992;2023-01-26T09:20:19;102069.62;;;0.02;100.00
57050;BME280;42935;50.966;16.992;2023-01-26T09:23:25;102067.28;;;-0.16;100.00
57050;BME280;42935;50.966;16.992;2023-01-26T09:26:32;102054.30;;;-0.30;100.00
57050;BME280;42935;50.966;16.992;2023-01-26T09:29:40;102045.98;;;-0.29;100.00
57050;BME280;42935;50.966;16.992;2023-01-26T09:32:50;102038.15;;;-0.25;100.00
57050;BME280;42935;50.966;16.992;2023-01-26T09:36:07;102039.36;;;-0.29;100.00
57050;BME280;42935;50.966;16.992;2023-01-26T09:39:17;102032.49;;;-0.21;100.00
57050;BME280;42935;50.966;16.992;2023-01-26T09:49:18;102033.72;;;-0.15;100.00
57050;BME280;42935;50.966;16.992;2023-01-26T09:52:35;102007.83;;;-0.08;100.00
57050;BME280;42935;50.966;16.992;2023-01-26T09:55:45;102024.36;;;-0.07;100.00
57050;BME280;42935;50.966;16.992;2023-01-26T10:02:30;102028.75;;;0.27;100.00
57050;BME280;42935;50.966;16.992;2023-01-26T10:08:57;102022.59;;;0.25;100.00
57050;BME280;42935;50.966;16.992;2023-01-26T10:12:20;102026.98;;;0.35;100.00
57050;BME280;42935;50.966;16.992;2023-01-26T10:15:38;102020.34;;;0.26;100.00
57050;BME280;42935;50.966;16.992;2023-01-26T10:19:03;102006.34;;;0.22;100.00
57050;BME280;42935;50.966;16.992;2023-01-26T10:25:45;102002.87;;;0.18;100.00
57050;BME280;42935;50.966;16.992;2023-01-26T10:29:04;102001.20;;;0.38;100.00
57050;BME280;42935;50.966;16.992;2023-01-26T10:32:16;102010.41;;;0.48;100.00
57050;BME280;42935;50.966;16.992;2023-01-26T10:35:31;102006.39;;;0.38;100.00
57050;BME280;42935;50.966;16.992;2023-01-26T10:38:50;102000.64;;;0.37;100.00
57050;BME280;42935;50.966;16.992;2023-01-26T10:42:01;101993.16;;;0.68;100.00
57050;BME280;42935;50.966;16.992;2023-01-26T10:48:33;101996.40;;;0.56;100.00
57050;BME280;42935;50.966;16.992;2023-01-26T10:51:45;101993.22;;;0.53;100.00
57050;BME280;42935;50.966;16.992;2023-01-26T11:01:54;102011.78;;;0.79;100.00
57050;BME280;42935;50.966;16.992;2023-01-26T11:08:36;102000.66;;;0.66;100.00
57050;BME280;42935;50.966;16.992;2023-01-26T11:15:23;101984.86;;;0.78;100.00
57050;BME280;42935;50.966;16.992;2023-01-26T11:22:05;101990.16;;;0.90;100.00
57050;BME280;42935;50.966;16.992;2023-01-26T11:25:31;101979.59;;;0.85;100.00
57050;BME280;42935;50.966;16.992;2023-01-26T11:28:49;101982.71;;;0.78;100.00
57050;BME280;42935;50.966;16.992;2023-01-26T11:35:27;101957.20;;;0.79;100.00
57050;BME280;42935;50.966;16.992;2023-01-26T11:38:43;101958.39;;;0.85;100.00
57050;BME280;42935;50.966;16.992;2023-01-26T11:42:09;101965.56;;;0.89;100.00
57050;BME280;42935;50.966;16.992;2023-01-26T12:02:37;101946.86;;;0.55;100.00
57050;BME280;42935;50.966;16.992;2023-01-26T12:05:51;101943.22;;;0.25;100.00
57050;BME280;42935;50.966;16.992;2023-01-26T12:09:13;101950.76;;;0.35;100.00
57050;BME280;42935;50.966;16.992;2023-01-26T12:15:58;101931.84;;;0.40;100.00
57050;BME280;42935;50.966;16.992;2023-01-26T12:22:38;101933.88;;;0.80;100.00
57050;BME280;42935;50.966;16.992;2023-01-26T12:25:57;101926.22;;;0.68;100.00
57050;BME280;42935;50.966;16.992;2023-01-26T12:32:32;101933.02;;;0.66;100.00
57050;BME280;42935;50.966;16.992;2023-01-26T12:39:10;101923.72;;;0.44;100.00
57050;BME280;42935;50.966;16.992;2023-01-26T12:45:39;101921.12;;;0.69;100.00
57050;BME280;42935;50.966;16.992;2023-01-26T12:49:10;101920.51;;;0.71;100.00
57050;BME280;42935;50.966;16.992;2023-01-26T12:58:58;101916.36;;;0.73;100.00
57050;BME280;42935;50.966;16.992;2023-01-26T13:05:34;101910.52;;;0.86;100.00
57050;BME280;42935;50.966;16.992;2023-01-26T13:08:50;101899.16;;;0.76;100.00
57050;BME280;42935;50.966;16.992;2023-01-26T13:12:42;101909.23;;;0.51;100.00
57050;BME280;42935;50.966;16.992;2023-01-26T13:15:29;101905.33;;;0.55;100.00
57050;BME280;42935;50.966;16.992;2023-01-26T13:18:49;101902.00;;;0.67;100.00
57050;BME280;42935;50.966;16.992;2023-01-26T13:25:30;101907.80;;;0.49;100.00
57050;BME280;42935;50.966;16.992;2023-01-26T13:28:47;101895.98;;;0.51;100.00
57050;BME280;42935;50.966;16.992;2023-01-26T13:32:01;101901.23;;;0.61;100.00
57050;BME280;42935;50.966;16.992;2023-01-26T13:35:12;101899.62;;;0.33;100.00
57050;BME280;42935;50.966;16.992;2023-01-26T13:41:47;101906.31;;;0.66;100.00
57050;BME280;42935;50.966;16.992;2023-01-26T13:45:03;101905.83;;;0.75;100.00
57050;BME280;42935;50.966;16.992;2023-01-26T14:27:49;101898.30;;;-0.36;100.00
57050;BME280;42935;50.966;16.992;2023-01-26T14:31:11;101889.70;;;-0.37;100.00
57050;BME280;42935;50.966;16.992;2023-01-26T14:34:30;101896.61;;;-0.13;100.00
57050;BME280;42935;50.966;16.992;2023-01-26T14:37:45;101897.05;;;0.07;100.00
57050;BME280;42935;50.966;16.992;2023-01-26T14:40:59;101893.02;;;0.21;100.00
57050;BME280;42935;50.966;16.992;2023-01-26T14:44:12;101891.76;;;0.24;100.00
57050;BME280;42935;50.966;16.992;2023-01-26T14:47:32;101884.09;;;0.19;100.00
57050;BME280;42935;50.966;16.992;2023-01-26T14:50:45;101896.87;;;0.37;100.00
57050;BME280;42935;50.966;16.992;2023-01-26T14:54:04;101894.35;;;0.38;100.00
57050;BME280;42935;50.966;16.992;2023-01-26T14:57:26;101875.16;;;0.32;100.00
57050;BME280;42935;50.966;16.992;2023-01-26T15:00:40;101872.18;;;0.54;100.00
57050;BME280;42935;50.966;16.992;2023-01-26T15:04:01;101882.15;;;0.45;100.00
57050;BME280;42935;50.966;16.992;2023-01-26T15:14:36;101873.77;;;0.58;100.00
57050;BME280;42935;50.966;16.992;2023-01-26T15:21:18;101869.05;;;0.52;100.00
57050;BME280;42935;50.966;16.992;2023-01-26T15:28:25;101886.82;;;0.74;100.00
57050;BME280;42935;50.966;16.992;2023-01-26T15:31:40;101890.37;;;0.66;100.00
57050;BME280;42935;50.966;16.992;2023-01-26T15:34:46;101890.81;;;0.65;100.00
57050;BME280;42935;50.966;16.992;2023-01-26T15:38:08;101884.21;;;0.32;100.00
57050;BME280;42935;50.966;16.992;2023-01-26T15:41:19;101895.11;;;0.49;100.00
57050;BME280;42935;50.966;16.992;2023-01-26T15:44:32;101882.17;;;0.28;100.00
57050;BME280;42935;50.966;16.992;2023-01-26T15:47:50;101891.63;;;0.20;100.00
57050;BME280;42935;50.966;16.992;2023-01-26T15:50:58;101891.75;;;0.11;100.00
57050;BME280;42935;50.966;16.992;2023-01-26T15:54:11;101885.02;;;0.07;100.00
57050;BME280;42935;50.966;16.992;2023-01-26T15:57:22;101874.22;;;0.03;100.00
57050;BME280;42935;50.966;16.992;2023-01-26T16:00:29;101869.93;;;0.07;100.00
57050;BME280;42935;50.966;16.992;2023-01-26T16:03:44;101891.34;;;0.12;100.00
57050;BME280;42935;50.966;16.992;2023-01-26T16:07:00;101892.68;;;0.06;100.00
57050;BME280;42935;50.966;16.992;2023-01-26T16:10:07;101885.46;;;0.01;100.00
57050;BME280;42935;50.966;16.992;2023-01-26T16:13:17;101891.47;;;-0.04;100.00
57050;BME280;42935;50.966;16.992;2023-01-26T16:16:32;101890.91;;;-0.07;100.00
57050;BME280;42935;50.966;16.992;2023-01-26T16:19:46;101890.59;;;0.03;100.00
57050;BME280;42935;50.966;16.992;2023-01-26T16:23:05;101871.88;;;-0.07;100.00
57050;BME280;42935;50.966;16.992;2023-01-26T16:26:20;101888.59;;;0.26;100.00
57050;BME280;42935;50.966;16.992;2023-01-26T16:30:01;101890.02;;;0.39;100.00
57050;BME280;42935;50.966;16.992;2023-01-26T16:33:10;101885.11;;;0.44;100.00
57050;BME280;42935;50.966;16.992;2023-01-26T16:36:27;101895.34;;;0.40;100.00
57050;BME280;42935;50.966;16.992;2023-01-26T16:40:16;101883.18;;;0.33;100.00
57050;BME280;42935;50.966;16.992;2023-01-26T16:44:00;101895.03;;;0.39;100.00
57050;BME280;42935;50.966;16.992;2023-01-26T16:47:50;101894.07;;;0.39;100.00
57050;BME280;42935;50.966;16.992;2023-01-26T16:51:14;101893.13;;;0.54;100.00
57050;BME280;42935;50.966;16.992;2023-01-26T16:54:29;101892.66;;;0.61;100.00
57050;BME280;42935;50.966;16.992;2023-01-26T16:57:42;101889.88;;;0.61;100.00
57050;BME280;42935;50.966;16.992;2023-01-26T17:01:00;101895.40;;;0.60;100.00
57050;BME280;42935;50.966;16.992;2023-01-26T17:04:46;101885.26;;;0.38;100.00
57050;BME280;42935;50.966;16.992;2023-01-26T17:07:56;101882.91;;;0.52;100.00
57050;BME280;42935;50.966;16.992;2023-01-26T17:11:17;101894.80;;;0.62;100.00
57050;BME280;42935;50.966;16.992;2023-01-26T17:15:00;101897.24;;;0.63;100.00
57050;BME280;42935;50.966;16.992;2023-01-26T17:18:15;101892.57;;;0.55;100.00
57050;BME280;42935;50.966;16.992;2023-01-26T17:21:26;101897.95;;;0.61;100.00
57050;BME280;42935;50.966;16.992;2023-01-26T17:24:40;101886.93;;;0.23;100.00
57050;BME280;42935;50.966;16.992;2023-01-26T17:28:23;101904.66;;;0.40;100.00
57050;BME280;42935;50.966;16.992;2023-01-26T17:31:40;101898.55;;;0.37;100.00
57050;BME280;42935;50.966;16.992;2023-01-26T17:34:44;101903.96;;;0.49;100.00
57050;BME280;42935;50.966;16.992;2023-01-26T17:38:26;101907.55;;;0.52;100.00
57050;BME280;42935;50.966;16.992;2023-01-26T17:41:28;101899.53;;;0.54;100.00
57050;BME280;42935;50.966;16.992;2023-01-26T17:44:44;101906.47;;;0.42;100.00
57050;BME280;42935;50.966;16.992;2023-01-26T17:48:26;101905.08;;;0.49;100.00
57050;BME280;42935;50.966;16.992;2023-01-26T17:51:46;101890.13;;;0.46;100.00
57050;BME280;42935;50.966;16.992;2023-01-26T17:55:01;101894.83;;;0.55;100.00
57050;BME280;42935;50.966;16.992;2023-01-26T17:58:15;101891.63;;;0.57;100.00
57050;BME280;42935;50.966;16.992;2023-01-26T18:01:25;101897.17;;;0.62;100.00
57050;BME280;42935;50.966;16.992;2023-01-26T18:04:36;101893.70;;;0.64;100.00
57050;BME280;42935;50.966;16.992;2023-01-26T18:08:21;101896.87;;;0.50;100.00
57050;BME280;42935;50.966;16.992;2023-01-26T18:11:37;101886.57;;;0.57;100.00
57050;BME280;42935;50.966;16.992;2023-01-26T18:14:44;101895.33;;;0.55;100.00
57050;BME280;42935;50.966;16.992;2023-01-26T18:18:00;101887.26;;;0.50;100.00
57050;BME280;42935;50.966;16.992;2023-01-26T18:21:18;101883.45;;;0.54;100.00
57050;BME280;42935;50.966;16.992;2023-01-26T18:25:01;101890.77;;;0.55;100.00
57050;BME280;42935;50.966;16.992;2023-01-26T18:28:09;101901.62;;;0.69;100.00
57050;BME280;42935;50.966;16.992;2023-01-26T18:31:23;101897.81;;;0.62;100.00
57050;BME280;42935;50.966;16.992;2023-01-26T18:34:34;101886.16;;;0.44;100.00
57050;BME280;42935;50.966;16.992;2023-01-26T18:37:49;101898.79;;;0.52;100.00
57050;BME280;42935;50.966;16.992;2023-01-26T18:41:08;101895.41;;;0.54;100.00
57050;BME280;42935;50.966;16.992;2023-01-26T18:44:16;101895.48;;;0.47;100.00
57050;BME280;42935;50.966;16.992;2023-01-26T18:47:28;101901.41;;;0.37;100.00
57050;BME280;42935;50.966;16.992;2023-01-26T18:50:41;101903.32;;;0.42;100.00
57050;BME280;42935;50.966;16.992;2023-01-26T18:53:55;101907.06;;;0.26;100.00
57050;BME280;42935;50.966;16.992;2023-01-26T18:57:06;101914.74;;;0.24;100.00
57050;BME280;42935;50.966;16.992;2023-01-26T19:00:17;101905.97;;;0.22;100.00
57050;BME280;42935;50.966;16.992;2023-01-26T19:03:33;101921.94;;;0.24;100.00
57050;BME280;42935;50.966;16.992;2023-01-26T19:06:40;101910.80;;;0.06;100.00
57050;BME280;42935;50.966;16.992;2023-01-26T19:10:17;101914.66;;;0.05;100.00
57050;BME280;42935;50.966;16.992;2023-01-26T19:13:28;101919.47;;;-0.01;100.00
57050;BME280;42935;50.966;16.992;2023-01-26T19:16:39;101918.38;;;-0.09;100.00
57050;BME280;42935;50.966;16.992;2023-01-26T19:20:22;101919.70;;;-0.16;100.00
57050;BME280;42935;50.966;16.992;2023-01-26T19:23:37;101930.20;;;-0.07;100.00